createdAt,value
2017-12-25T00:01:21.328Z,89.30
2017-12-25T00:03:53.236Z,89.01
2017-12-25T00:06:26.093Z,87.41
2017-12-25T00:08:56.351Z,87.01
2017-12-25T00:11:25.053Z,87.15
2017-12-25T00:13:55.047Z,91.77
2017-12-25T00:16:25.701Z,91.81
2017-12-25T00:18:54.029Z,86.13
2017-12-25T00:21:21.631Z,85.04
2017-12-25T00:23:54.787Z,85.71
2017-12-25T00:26:26.762Z,85.87
2017-12-25T00:28:55.499Z,86.27
2017-12-25T00:31:24.694Z,86.98
2017-12-25T00:33:53.256Z,87.37
2017-12-25T00:36:22.352Z,87.48
2017-12-25T00:38:52.847Z,88.17
2017-12-25T00:41:22.313Z,88.74
2017-12-25T00:43:52.134Z,89.12
2017-12-25T00:46:23.899Z,89.46
2017-12-25T00:48:55.809Z,89.54
2017-12-25T00:51:25.047Z,89.58
2017-12-25T00:53:54.075Z,89.40
2017-12-25T00:56:22.359Z,89.43
2017-12-25T00:58:52.125Z,89.33
2017-12-25T01:01:20.501Z,89.26
2017-12-25T01:03:48.643Z,89.38
2017-12-25T01:06:17.809Z,89.14
2017-12-25T01:08:45.428Z,88.84
2017-12-25T01:11:16.017Z,88.24
2017-12-25T01:13:44.850Z,88.22
2017-12-25T01:16:13.650Z,88.23
2017-12-25T01:18:44.678Z,87.85
2017-12-25T01:21:13.366Z,87.51
2017-12-25T01:23:42.064Z,87.29
2017-12-25T01:26:10.390Z,87.19
2017-12-25T01:28:42.490Z,87.28
2017-12-25T01:31:15.606Z,87.20
2017-12-25T01:33:46.612Z,91.46
2017-12-25T01:36:14.467Z,87.09
2017-12-25T01:38:44.076Z,87.12
2017-12-25T01:41:13.436Z,87.57
2017-12-25T01:43:42.062Z,87.91
2017-12-25T01:46:11.350Z,88.34
2017-12-25T01:48:41.092Z,88.51
2017-12-25T01:51:09.349Z,88.80
2017-12-25T01:53:49.742Z,89.17
2017-12-25T01:59:59.421Z,90.27
2017-12-25T02:02:27.714Z,90.35
2017-12-25T02:10:55.847Z,90.86
2017-12-25T02:13:26.178Z,90.96
2017-12-25T02:16:00.337Z,91.10
2017-12-25T02:18:29.131Z,91.13
2017-12-25T02:20:59.235Z,91.46
2017-12-25T02:23:27.405Z,91.50
2017-12-25T02:25:55.829Z,91.82
2017-12-25T02:28:24.584Z,91.56
2017-12-25T02:30:54.681Z,91.33
2017-12-25T02:33:22.335Z,91.14
2017-12-25T02:35:54.067Z,90.99
2017-12-25T02:38:22.862Z,90.85
2017-12-25T02:40:51.613Z,90.58
2017-12-25T02:43:19.919Z,90.46
2017-12-25T02:45:48.958Z,90.52
2017-12-25T02:48:20.831Z,90.24
2017-12-25T02:50:48.830Z,90.41
2017-12-25T02:53:19.143Z,90.58
2017-12-25T02:55:48.274Z,90.58
2017-12-25T02:58:17.386Z,90.50
2017-12-25T03:00:48.198Z,90.56
2017-12-25T03:03:17.659Z,90.67
2017-12-25T03:05:46.373Z,90.53
2017-12-25T03:08:20.466Z,90.84
2017-12-25T03:10:51.344Z,90.68
2017-12-25T03:13:20.387Z,90.46
2017-12-25T03:15:49.225Z,90.21
2017-12-25T03:18:17.522Z,90.08
2017-12-25T03:20:50.482Z,90.03
2017-12-25T03:23:18.099Z,90.02
2017-12-25T03:25:45.697Z,90.29
2017-12-25T03:28:17.137Z,90.39
2017-12-25T03:30:46.556Z,90.29
2017-12-25T03:33:14.786Z,90.47
2017-12-25T03:35:44.219Z,90.50
2017-12-25T03:38:11.817Z,90.38
2017-12-25T03:40:39.577Z,90.62
2017-12-25T03:43:07.430Z,90.47
2017-12-25T03:45:35.726Z,90.86
2017-12-25T03:48:03.719Z,91.15
2017-12-25T03:50:32.926Z,91.21
2017-12-25T03:53:01.333Z,91.38
2017-12-25T03:55:28.981Z,91.73
2017-12-25T03:57:59.370Z,92.11
2017-12-25T04:00:29.633Z,92.30
2017-12-25T04:02:58.249Z,92.89
2017-12-25T04:05:27.525Z,93.48
2017-12-25T04:07:58.490Z,93.71
2017-12-25T04:10:26.090Z,94.08
2017-12-25T04:12:54.454Z,94.65
2017-12-25T04:15:22.074Z,94.76
2017-12-25T04:17:51.163Z,94.68
2017-12-25T04:20:20.129Z,94.53
2017-12-25T04:22:48.823Z,94.41
2017-12-25T04:25:21.482Z,94.46
2017-12-25T04:27:51.002Z,94.44
2017-12-25T04:30:19.495Z,94.43
2017-12-25T04:32:48.126Z,94.46
2017-12-25T04:35:16.012Z,94.42
2017-12-25T04:37:44.388Z,94.49
2017-12-25T04:40:12.684Z,94.00
2017-12-25T04:42:42.039Z,93.86
2017-12-25T04:45:10.866Z,93.63
2017-12-25T04:47:39.291Z,93.40
2017-12-25T04:50:09.254Z,93.30
2017-12-25T04:52:39.362Z,93.10
2017-12-25T04:55:07.940Z,92.78
2017-12-25T04:57:36.328Z,92.53
2017-12-25T05:00:05.804Z,92.44
2017-12-25T05:02:34.482Z,91.99
2017-12-25T05:05:06.471Z,91.65
2017-12-25T05:07:35.787Z,91.55
2017-12-25T05:10:09.458Z,91.39
2017-12-25T05:12:38.946Z,90.89
2017-12-25T05:15:08.527Z,90.39
2017-12-25T05:17:37.216Z,90.39
2017-12-25T05:20:06.422Z,89.87
2017-12-25T05:22:34.885Z,89.77
2017-12-25T05:25:05.686Z,89.31
2017-12-25T05:27:35.683Z,88.66
2017-12-25T05:30:04.888Z,88.38
2017-12-25T05:32:36.361Z,88.35
2017-12-25T05:35:04.959Z,88.33
2017-12-25T05:37:32.550Z,88.09
2017-12-25T05:40:00.170Z,87.62
2017-12-25T05:42:29.539Z,87.25
2017-12-25T05:45:00.837Z,87.16
2017-12-25T05:47:31.099Z,86.54
2017-12-25T05:50:02.158Z,86.74
2017-12-25T05:52:34.773Z,86.61
2017-12-25T05:55:05.184Z,86.38
2017-12-25T05:57:34.859Z,85.88
2017-12-25T06:00:02.504Z,85.55
2017-12-25T06:02:35.813Z,85.78
2017-12-25T06:05:08.096Z,85.63
2017-12-25T06:07:36.895Z,85.57
2017-12-25T06:10:04.515Z,85.68
2017-12-25T06:12:33.046Z,85.67
2017-12-25T06:15:03.200Z,85.71
2017-12-25T06:17:32.089Z,85.83
2017-12-25T06:20:00.953Z,85.87
2017-12-25T06:22:31.438Z,85.79
2017-12-25T06:25:00.785Z,86.00
2017-12-25T06:27:32.288Z,85.70
2017-12-25T06:30:00.725Z,85.97
2017-12-25T06:32:32.436Z,85.81
2017-12-25T06:35:07.311Z,85.70
2017-12-25T06:37:37.219Z,85.78
2017-12-25T06:40:04.845Z,85.67
2017-12-25T06:42:33.437Z,86.01
2017-12-25T06:45:03.767Z,85.86
2017-12-25T06:47:32.038Z,85.75
2017-12-25T06:50:01.939Z,85.96
2017-12-25T06:52:35.762Z,85.56
2017-12-25T06:55:03.694Z,85.54
2017-12-25T06:57:31.266Z,85.76
2017-12-25T06:59:58.946Z,85.99
2017-12-25T07:02:30.892Z,85.95
2017-12-25T07:05:01.123Z,85.83
2017-12-25T07:07:32.348Z,85.76
2017-12-25T07:10:01.014Z,85.98
2017-12-25T07:12:30.909Z,86.03
2017-12-25T07:14:58.885Z,86.05
2017-12-25T07:17:27.412Z,86.06
2017-12-25T07:19:56.781Z,86.15
2017-12-25T07:25:05.954Z,87.07
2017-12-25T07:27:36.871Z,87.17
2017-12-25T07:30:05.982Z,87.49
2017-12-25T07:32:35.779Z,87.71
2017-12-25T07:35:08.086Z,87.60
2017-12-25T07:37:39.324Z,87.62
2017-12-25T07:43:04.104Z,87.86
2017-12-25T07:45:33.722Z,87.89
2017-12-25T07:48:02.554Z,87.94
2017-12-25T07:50:32.499Z,87.65
2017-12-25T07:53:00.556Z,87.83
2017-12-25T07:55:29.094Z,87.18
2017-12-25T07:57:58.842Z,87.32
2017-12-25T08:00:28.285Z,87.53
2017-12-25T08:03:01.778Z,87.32
2017-12-25T08:05:29.748Z,87.26
2017-12-25T08:07:58.227Z,87.42
2017-12-25T08:10:27.615Z,87.48
2017-12-25T08:12:55.989Z,87.28
2017-12-25T08:15:25.168Z,87.16
2017-12-25T08:17:54.976Z,86.95
2017-12-25T08:20:26.286Z,87.06
2017-12-25T08:22:53.947Z,86.49
2017-12-25T08:25:22.939Z,86.15
2017-12-25T08:27:51.546Z,86.35
2017-12-25T08:30:20.382Z,85.96
2017-12-25T08:32:48.883Z,85.64
2017-12-25T08:35:17.834Z,84.90
2017-12-25T08:37:46.384Z,84.54
2017-12-25T08:40:16.935Z,84.11
2017-12-25T08:42:45.809Z,83.68
2017-12-25T08:45:16.071Z,83.73
2017-12-25T08:47:44.503Z,83.70
2017-12-25T08:50:13.178Z,83.21
2017-12-25T08:52:42.566Z,83.26
2017-12-25T08:55:11.587Z,83.33
2017-12-25T08:57:43.133Z,83.51
2017-12-25T09:00:10.707Z,83.76
2017-12-25T09:02:40.411Z,83.63
2017-12-25T09:05:10.516Z,83.74
2017-12-25T09:07:39.236Z,83.77
2017-12-25T09:10:09.121Z,84.07
2017-12-25T09:12:37.702Z,83.95
2017-12-25T09:15:06.077Z,83.62
2017-12-25T09:17:34.777Z,83.65
2017-12-25T09:20:03.077Z,83.67
2017-12-25T09:22:31.696Z,83.55
2017-12-25T09:25:01.206Z,82.98
2017-12-25T09:27:29.769Z,82.93
2017-12-25T09:29:58.421Z,83.32
2017-12-25T09:32:26.634Z,83.41
2017-12-25T09:34:57.721Z,83.71
2017-12-25T09:37:25.325Z,83.86
2017-12-25T09:39:54.885Z,83.68
2017-12-25T09:42:26.916Z,83.58
2017-12-25T09:44:56.467Z,83.30
2017-12-25T09:47:24.508Z,83.70
2017-12-25T09:49:53.943Z,84.10
2017-12-25T09:52:22.409Z,84.29
2017-12-25T09:54:52.441Z,84.25
2017-12-25T09:57:23.773Z,84.51
2017-12-25T09:59:52.246Z,84.59
2017-12-25T10:02:25.250Z,84.42
2017-12-25T10:04:57.684Z,84.46
2017-12-25T10:07:27.205Z,84.50
2017-12-25T10:09:55.355Z,84.35
2017-12-25T10:12:30.846Z,83.77
2017-12-25T10:15:00.372Z,83.76
2017-12-25T10:17:30.447Z,83.27
2017-12-25T10:20:02.986Z,83.59
2017-12-25T10:22:33.398Z,83.62
2017-12-25T10:25:02.552Z,83.21
2017-12-25T10:27:33.638Z,83.20
2017-12-25T10:30:04.542Z,82.90
2017-12-25T10:32:34.838Z,82.91
2017-12-25T10:35:03.260Z,82.46
2017-12-25T10:37:31.146Z,82.54
2017-12-25T10:39:58.787Z,82.18
2017-12-25T10:42:27.623Z,82.37
2017-12-25T10:44:56.060Z,81.93
2017-12-25T10:47:27.227Z,81.25
2017-12-25T10:49:55.848Z,81.12
2017-12-25T10:52:26.375Z,80.60
2017-12-25T10:54:56.911Z,80.46
2017-12-25T10:57:24.510Z,80.87
2017-12-25T10:59:54.570Z,80.95
2017-12-25T11:02:28.012Z,80.55
2017-12-25T11:04:56.890Z,80.63
2017-12-25T11:07:25.514Z,80.29
2017-12-25T11:09:55.576Z,80.42
2017-12-25T11:12:23.991Z,80.90
2017-12-25T11:14:53.557Z,80.47
2017-12-25T11:17:22.943Z,80.09
2017-12-25T11:19:51.171Z,79.52
2017-12-25T11:22:28.041Z,79.63
2017-12-25T11:24:56.479Z,79.15
2017-12-25T11:27:25.151Z,79.06
2017-12-25T11:29:54.976Z,78.32
2017-12-25T11:32:32.450Z,78.38
2017-12-25T11:35:00.740Z,78.13
2017-12-25T11:37:29.275Z,78.20
2017-12-25T11:39:56.869Z,77.82
2017-12-25T11:42:26.375Z,77.67
2017-12-25T11:44:53.963Z,76.85
2017-12-25T11:47:21.635Z,76.92
2017-12-25T11:49:49.243Z,77.08
2017-12-25T11:52:17.162Z,77.08
2017-12-25T11:54:46.194Z,76.83
2017-12-25T11:57:17.495Z,76.47
2017-12-25T11:59:47.946Z,76.44
2017-12-25T12:02:16.573Z,76.99
2017-12-25T12:04:46.509Z,77.15
2017-12-25T12:07:15.275Z,76.40
2017-12-25T12:09:42.869Z,76.59
2017-12-25T12:12:11.695Z,76.68
2017-12-25T12:14:39.319Z,76.19
2017-12-25T12:17:10.118Z,76.39
2017-12-25T12:19:39.010Z,77.00
2017-12-25T12:22:07.788Z,76.79
2017-12-25T12:24:36.221Z,76.94
2017-12-25T12:27:05.555Z,76.40
2017-12-25T12:32:17.596Z,76.06
2017-12-25T12:34:46.591Z,74.67
2017-12-25T12:37:14.179Z,80.52
2017-12-25T12:39:43.027Z,74.84
2017-12-25T12:42:11.330Z,74.99
2017-12-25T12:44:40.003Z,75.40
2017-12-25T12:47:11.703Z,75.59
2017-12-25T12:49:40.509Z,75.50
2017-12-25T12:52:09.806Z,75.54
2017-12-25T12:54:37.989Z,75.10
2017-12-25T12:57:06.973Z,75.13
2017-12-25T12:59:37.900Z,73.07
2017-12-25T13:02:08.550Z,72.83
2017-12-25T13:04:38.870Z,73.82
2017-12-25T13:07:09.834Z,73.27
2017-12-25T13:09:40.988Z,72.96
2017-12-25T13:12:10.809Z,73.33
2017-12-25T13:14:39.184Z,74.13
2017-12-25T13:17:08.558Z,74.44
2017-12-25T13:19:36.231Z,75.51
2017-12-25T13:22:04.806Z,75.93
2017-12-25T13:24:32.418Z,75.47
2017-12-25T13:27:01.748Z,76.03
2017-12-25T13:29:30.522Z,76.21
2017-12-25T13:31:58.174Z,76.32
2017-12-25T13:34:28.659Z,76.49
2017-12-25T13:36:58.047Z,76.02
2017-12-25T13:39:26.516Z,74.50
2017-12-25T13:41:58.496Z,72.86
2017-12-25T13:44:28.463Z,73.49
2017-12-25T13:46:58.131Z,74.01
2017-12-25T13:49:29.334Z,74.39
2017-12-25T13:51:58.436Z,74.31
2017-12-25T13:54:30.449Z,74.94
2017-12-25T13:57:01.393Z,76.18
2017-12-25T13:59:30.531Z,76.83
2017-12-25T14:02:00.118Z,77.17
2017-12-25T14:04:27.900Z,77.29
2017-12-25T14:06:58.409Z,77.60
2017-12-25T14:09:26.413Z,77.54
2017-12-25T14:11:55.370Z,77.74
2017-12-25T14:14:24.102Z,77.26
2017-12-25T14:16:52.982Z,77.68
2017-12-25T14:19:23.591Z,77.96
2017-12-25T14:21:52.733Z,77.93
2017-12-25T14:24:21.757Z,77.73
2017-12-25T14:26:52.380Z,77.84
2017-12-25T14:29:20.051Z,76.80
2017-12-25T14:31:47.689Z,76.69
2017-12-25T14:34:16.023Z,76.70
2017-12-25T14:36:46.454Z,76.98
2017-12-25T14:39:15.070Z,77.03
2017-12-25T14:41:45.742Z,77.46
2017-12-25T14:44:13.354Z,77.98
2017-12-25T14:46:43.819Z,77.94
2017-12-25T14:49:13.734Z,78.42
2017-12-25T14:51:42.166Z,78.74
2017-12-25T14:54:09.815Z,78.70
2017-12-25T14:56:38.165Z,78.70
2017-12-25T14:59:08.865Z,79.16
2017-12-25T15:01:38.744Z,79.36
2017-12-25T15:04:09.442Z,79.28
2017-12-25T15:06:37.098Z,79.45
2017-12-25T15:09:05.048Z,79.39
2017-12-25T15:11:34.012Z,79.46
2017-12-25T15:14:03.587Z,79.14
2017-12-25T15:16:32.409Z,79.02
2017-12-25T15:19:00.076Z,78.86
2017-12-25T15:21:30.152Z,78.90
2017-12-25T15:23:58.484Z,78.85
2017-12-25T15:26:28.465Z,79.10
2017-12-25T15:28:56.120Z,79.06
2017-12-25T15:31:25.110Z,78.85
2017-12-25T15:33:55.705Z,78.52
2017-12-25T15:36:26.206Z,78.67
2017-12-25T15:38:56.149Z,78.78
2017-12-25T15:41:29.270Z,78.74
2017-12-25T15:43:58.282Z,78.83
2017-12-25T15:46:28.578Z,78.86
2017-12-25T15:48:58.584Z,78.69
2017-12-25T15:51:26.193Z,78.40
2017-12-25T15:56:29.087Z,78.81
2017-12-25T15:58:57.230Z,78.26
2017-12-25T16:01:28.683Z,78.42
2017-12-25T16:03:56.286Z,78.63
2017-12-25T16:06:27.614Z,78.79
2017-12-25T16:09:00.452Z,78.31
2017-12-25T16:11:28.781Z,78.49
2017-12-25T16:13:56.898Z,78.58
2017-12-25T16:16:27.101Z,78.89
2017-12-25T16:18:54.678Z,79.42
2017-12-25T16:21:24.604Z,79.13
2017-12-25T16:23:53.055Z,79.35
2017-12-25T16:26:22.401Z,79.05
2017-12-25T16:28:51.930Z,78.48
2017-12-25T16:31:21.253Z,78.19
2017-12-25T16:33:54.036Z,78.05
2017-12-25T16:36:22.791Z,78.43
2017-12-25T16:38:52.245Z,78.89
2017-12-25T16:41:22.110Z,79.07
2017-12-25T16:43:53.926Z,78.81
2017-12-25T16:46:23.718Z,78.70
2017-12-25T16:48:53.989Z,78.89
2017-12-25T16:51:24.790Z,79.03
2017-12-25T16:53:54.882Z,78.85
2017-12-25T16:56:25.234Z,79.16
2017-12-25T16:58:57.291Z,79.14
2017-12-25T17:01:29.671Z,79.06
2017-12-25T17:03:58.436Z,79.20
2017-12-25T17:06:27.237Z,78.99
2017-12-25T17:08:57.818Z,79.40
2017-12-25T17:11:26.846Z,79.39
2017-12-25T17:13:59.063Z,79.66
2017-12-25T17:16:28.293Z,80.10
2017-12-25T17:18:58.603Z,80.51
2017-12-25T17:21:28.010Z,80.67
2017-12-25T17:23:55.624Z,80.76
2017-12-25T17:26:25.698Z,80.69
2017-12-25T17:28:57.916Z,80.80
2017-12-25T17:31:26.187Z,80.92
2017-12-25T17:33:55.080Z,80.91
2017-12-25T17:36:25.351Z,80.67
2017-12-25T17:38:55.940Z,81.21
2017-12-25T17:41:27.294Z,80.96
2017-12-25T17:43:58.001Z,80.93
2017-12-25T17:46:26.433Z,81.02
2017-12-25T17:48:55.494Z,80.34
2017-12-25T17:51:24.603Z,79.94
2017-12-25T17:53:55.862Z,80.23
2017-12-25T17:56:25.726Z,80.43
2017-12-25T17:58:54.077Z,81.02
2017-12-25T18:01:23.717Z,80.28
2017-12-25T18:03:51.963Z,80.30
2017-12-25T18:06:20.430Z,80.08
2017-12-25T18:08:48.770Z,80.11
2017-12-25T18:11:17.458Z,79.94
2017-12-25T18:13:48.210Z,78.86
2017-12-25T18:16:17.511Z,79.01
2017-12-25T18:18:47.878Z,79.37
2017-12-25T18:21:20.252Z,79.01
2017-12-25T18:23:54.954Z,79.19
2017-12-25T18:26:26.267Z,78.56
2017-12-25T18:28:59.411Z,78.52
2017-12-25T18:31:29.515Z,78.22
2017-12-25T18:34:04.994Z,78.16
2017-12-25T18:36:33.544Z,78.31
2017-12-25T18:39:02.520Z,78.33
2017-12-25T18:41:30.100Z,77.67
2017-12-25T18:43:58.124Z,78.06
2017-12-25T18:46:28.095Z,77.83
2017-12-25T18:48:57.423Z,77.74
2017-12-25T18:51:26.112Z,77.93
2017-12-25T18:53:55.595Z,78.31
2017-12-25T18:56:26.475Z,78.77
2017-12-25T18:58:55.647Z,79.26
2017-12-25T19:01:26.524Z,79.84
2017-12-25T19:03:54.821Z,80.20
2017-12-25T19:06:23.394Z,80.47
2017-12-25T19:08:52.673Z,80.80
2017-12-25T19:11:22.508Z,81.17
2017-12-25T19:13:51.247Z,81.60
2017-12-25T19:16:20.537Z,81.72
2017-12-25T19:18:48.140Z,81.71
2017-12-25T19:21:17.222Z,81.74
2017-12-25T19:23:46.566Z,81.88
2017-12-25T19:26:16.598Z,81.74
2017-12-25T19:28:45.838Z,81.37
2017-12-25T19:31:14.138Z,81.54
2017-12-25T19:33:43.406Z,81.41
2017-12-25T19:36:12.218Z,81.61
2017-12-25T19:38:42.075Z,80.92
2017-12-25T19:41:10.127Z,80.45
2017-12-25T19:43:38.550Z,80.43
2017-12-25T19:46:09.782Z,80.35
2017-12-25T19:51:12.511Z,78.98
2017-12-25T19:53:42.147Z,79.25
2017-12-25T19:56:10.451Z,78.91
2017-12-25T19:58:40.812Z,79.45
2017-12-25T20:01:10.548Z,79.71
2017-12-25T20:03:38.175Z,79.76
2017-12-25T20:06:07.666Z,79.79
2017-12-25T20:08:37.632Z,80.30
2017-12-25T20:11:05.666Z,80.66
2017-12-25T20:13:34.387Z,80.76
2017-12-25T20:16:04.046Z,80.77
2017-12-25T20:18:32.918Z,81.02
2017-12-25T20:21:03.102Z,80.47
2017-12-25T20:23:31.974Z,80.66
2017-12-25T20:26:00.552Z,80.69
2017-12-25T20:28:31.791Z,80.77
2017-12-25T20:31:02.322Z,81.10
2017-12-25T20:33:31.304Z,80.97
2017-12-25T20:35:59.016Z,81.15
2017-12-25T20:38:27.670Z,81.09
2017-12-25T20:40:55.987Z,81.18
2017-12-25T20:43:26.100Z,80.99
2017-12-25T20:45:55.077Z,81.00
2017-12-25T20:48:24.427Z,81.29
2017-12-25T20:50:52.032Z,81.46
2017-12-25T20:53:22.913Z,81.34
2017-12-25T20:55:50.900Z,81.73
2017-12-25T20:58:19.646Z,81.44
2017-12-25T21:00:49.128Z,81.74
2017-12-25T21:03:17.827Z,81.95
2017-12-25T21:05:45.379Z,82.31
2017-12-25T21:08:14.694Z,82.68
2017-12-25T21:10:45.258Z,82.60
2017-12-25T21:13:13.746Z,82.64
2017-12-25T21:15:42.829Z,82.94
2017-12-25T21:18:11.694Z,82.88
2017-12-25T21:20:40.474Z,83.16
2017-12-25T21:23:12.694Z,83.03
2017-12-25T21:25:41.163Z,83.00
2017-12-25T21:28:11.266Z,83.31
2017-12-25T21:30:39.798Z,83.79
2017-12-25T21:33:07.438Z,83.52
2017-12-25T21:35:35.675Z,83.59
2017-12-25T21:38:04.015Z,83.88
2017-12-25T21:40:32.278Z,83.78
2017-12-25T21:43:05.156Z,83.78
2017-12-25T21:45:35.774Z,84.16
2017-12-25T21:48:06.692Z,84.08
2017-12-25T21:50:36.007Z,83.91
2017-12-25T21:53:07.772Z,84.24
2017-12-25T21:55:35.521Z,84.27
2017-12-25T21:58:04.335Z,84.08
2017-12-25T22:00:32.801Z,84.34
2017-12-25T22:03:01.915Z,84.57
2017-12-25T22:05:32.902Z,84.80
2017-12-25T22:08:02.635Z,84.91
2017-12-25T22:10:32.563Z,85.44
2017-12-25T22:13:00.178Z,86.33
2017-12-25T22:15:28.960Z,86.57
2017-12-25T22:17:57.298Z,86.40
2017-12-25T22:20:25.282Z,86.26
2017-12-25T22:22:52.975Z,86.50
2017-12-25T22:25:21.560Z,86.24
2017-12-25T22:27:52.690Z,86.10
2017-12-25T22:30:20.976Z,84.89
2017-12-25T22:32:51.082Z,83.96
2017-12-25T22:35:20.391Z,84.39
2017-12-25T22:37:48.727Z,84.32
2017-12-25T22:40:18.122Z,84.53
2017-12-25T22:42:48.787Z,85.29
2017-12-25T22:45:19.968Z,86.08
2017-12-25T22:47:48.253Z,85.85
2017-12-25T22:50:16.616Z,86.09
2017-12-25T22:52:47.819Z,86.13
2017-12-25T22:55:16.783Z,85.94
2017-12-25T22:57:45.221Z,86.06
2017-12-25T23:00:17.157Z,86.36
2017-12-25T23:02:47.602Z,86.10
2017-12-25T23:05:15.252Z,86.10
2017-12-25T23:07:45.689Z,86.07
2017-12-25T23:10:13.282Z,86.41
2017-12-25T23:12:42.134Z,86.97
2017-12-25T23:15:15.652Z,87.10
2017-12-25T23:17:43.373Z,87.28
2017-12-25T23:20:10.967Z,87.49
2017-12-25T23:22:38.613Z,87.59
2017-12-25T23:25:08.198Z,87.80
2017-12-25T23:27:38.194Z,87.90
2017-12-25T23:30:07.488Z,87.71
2017-12-25T23:32:37.204Z,87.66
2017-12-25T23:35:06.969Z,87.94
2017-12-25T23:37:36.875Z,87.90
2017-12-25T23:40:07.005Z,87.67
2017-12-25T23:42:37.747Z,87.60
2017-12-25T23:45:09.286Z,87.72
2017-12-25T23:47:39.038Z,87.77
2017-12-25T23:50:10.112Z,88.02
2017-12-25T23:52:38.258Z,88.21
2017-12-25T23:55:07.635Z,88.33
2017-12-25T23:57:36.904Z,88.89
